Time;durP1;ratioP1;P1;durP2;ratioP2;P2;SDS_P1;SDS_P2;PMS_P1;PMS_P2;Temp;Humidity;BMP_temperature;BMP_pressure;BME280_temperature;BME280_humidity;BME280_pressure;Samples;Min_cycle;Max_cycle;Signal;HPM_P1;HPM_P2
2023/04/12 00:00:54;;;;;;;3.08;0.90;;;;;;;;;;6277076;22;20452;-76
2023/04/12 00:03:20;;;;;;;4.13;1.15;;;;;;;;;;6278720;22;20050;-76
2023/04/12 00:05:47;;;;;;;3.72;0.93;;;;;;;;;;6276636;22;20004;-76
2023/04/12 00:08:13;;;;;;;4.82;1.10;;;;;;;;;;6277306;22;20035;-76
2023/04/12 00:10:38;;;;;;;5.00;1.20;;;;;;;;;;6278815;22;19999;-77
2023/04/12 00:13:04;;;;;;;4.82;1.20;;;;;;;;;;6277150;22;20090;-76
2023/04/12 00:15:29;;;;;;;3.50;1.10;;;;;;;;;;6277935;22;20004;-76
2023/04/12 00:17:55;;;;;;;5.25;1.20;;;;;;;;;;6277015;22;20000;-76
2023/04/12 00:20:20;;;;;;;7.55;1.30;;;;;;;;;;6275682;22;20003;-77
2023/04/12 00:22:46;;;;;;;3.53;1.10;;;;;;;;;;6279230;22;20038;-76
2023/04/12 00:25:11;;;;;;;3.80;1.13;;;;;;;;;;6276522;22;20329;-76
2023/04/12 00:27:37;;;;;;;3.03;1.00;;;;;;;;;;6278172;22;20047;-77
2023/04/12 00:30:03;;;;;;;3.13;0.85;;;;;;;;;;6278275;22;20007;-76
2023/04/12 00:32:28;;;;;;;2.70;1.13;;;;;;;;;;6279877;22;20079;-77
2023/04/12 00:34:54;;;;;;;5.03;1.42;;;;;;;;;;6278182;22;20015;-76
2023/04/12 00:37:20;;;;;;;3.80;0.90;;;;;;;;;;6279685;22;19999;-76
2023/04/12 00:39:45;;;;;;;2.90;1.00;;;;;;;;;;6277757;22;20078;-76
2023/04/12 00:42:10;;;;;;;2.40;0.82;;;;;;;;;;6279197;22;20031;-76
2023/04/12 00:44:36;;;;;;;4.13;0.93;;;;;;;;;;6280195;22;20006;-76
2023/04/12 00:47:06;;;;;;;3.05;0.93;;;;;;;;;;6277591;22;20083;-77
2023/04/12 00:49:32;;;;;;;6.75;0.90;;;;;;;;;;6278037;22;20003;-77
2023/04/12 00:52:05;;;;;;;3.55;0.70;;;;;;;;;;6276820;22;20065;-76
2023/04/12 00:54:33;;;;;;;3.60;1.00;;;;;;;;;;6277396;22;20031;-76
2023/04/12 00:56:59;;;;;;;4.03;1.08;;;;;;;;;;6276877;22;20057;-76
2023/04/12 00:59:25;;;;;;;3.30;0.93;;;;;;;;;;6276033;22;20007;-77
2023/04/12 01:01:51;;;;;;;4.35;1.20;;;;;;;;;;6273089;22;20018;-76
2023/04/12 01:04:17;;;;;;;3.13;1.00;;;;;;;;;;6277615;22;20485;-76
2023/04/12 01:07:02;;;;;;;3.90;1.00;;;;;;;;;;6278261;22;20000;-76
2023/04/12 01:10:11;;;;;;;2.95;0.85;;;;;;;;;;6277302;22;20003;-77
2023/04/12 01:12:57;;;;;;;2.65;0.70;;;;;;;;;;6185426;23;20008;-76
2023/04/12 01:15:25;;;;;;;3.72;0.90;;;;;;;;;;6278425;22;20029;-76
2023/04/12 01:18:15;;;;;;;2.85;1.10;;;;;;;;;;6278312;22;20418;-76
2023/04/12 01:20:47;;;;;;;3.25;1.02;;;;;;;;;;6276792;22;20396;-76
2023/04/12 01:23:43;;;;;;;2.85;0.80;;;;;;;;;;6277132;22;20003;-76
2023/04/12 01:26:21;;;;;;;2.80;1.00;;;;;;;;;;6277149;22;20007;-77
2023/04/12 01:28:51;;;;;;;5.78;1.13;;;;;;;;;;6276037;22;20016;-77
2023/04/12 01:31:18;;;;;;;2.90;0.80;;;;;;;;;;6280285;22;20388;-76
2023/04/12 01:33:44;;;;;;;4.55;0.93;;;;;;;;;;6281376;22;20361;-77
2023/04/12 01:36:14;;;;;;;5.20;1.15;;;;;;;;;;6279089;22;20014;-76
2023/04/12 01:38:40;;;;;;;1.85;0.70;;;;;;;;;;6279062;22;20014;-76
2023/04/12 01:41:07;;;;;;;1.67;0.77;;;;;;;;;;6277298;22;20008;-76
2023/04/12 01:43:32;;;;;;;3.15;0.80;;;;;;;;;;6279377;22;19999;-76
2023/04/12 01:45:58;;;;;;;4.22;1.13;;;;;;;;;;6276885;22;20003;-76
2023/04/12 01:48:23;;;;;;;3.55;0.70;;;;;;;;;;6280494;22;20018;-77
2023/04/12 01:51:15;;;;;;;6.95;1.20;;;;;;;;;;6279699;22;20008;-77
2023/04/12 01:54:02;;;;;;;1.98;0.90;;;;;;;;;;6276276;22;20111;-77
2023/04/12 01:56:33;;;;;;;2.42;0.77;;;;;;;;;;6279022;22;20007;-76
2023/04/12 01:59:00;;;;;;;3.13;1.08;;;;;;;;;;6279895;22;20441;-76
2023/04/12 02:01:27;;;;;;;4.00;1.23;;;;;;;;;;6275912;22;20045;-76
2023/04/12 02:03:55;;;;;;;3.28;1.10;;;;;;;;;;6278156;22;20007;-77
2023/04/12 02:06:21;;;;;;;2.00;0.90;;;;;;;;;;6274969;22;20334;-76
2023/04/12 02:08:47;;;;;;;3.92;1.00;;;;;;;;;;6277115;22;20061;-76
2023/04/12 02:11:15;;;;;;;3.10;0.90;;;;;;;;;;6278163;22;20004;-76
2023/04/12 02:13:41;;;;;;;2.00;0.82;;;;;;;;;;6276511;22;19996;-77
2023/04/12 02:16:09;;;;;;;5.18;1.00;;;;;;;;;;6274743;22;20029;-76
2023/04/12 02:18:34;;;;;;;3.25;0.98;;;;;;;;;;6276674;22;20000;-77
2023/04/12 02:21:00;;;;;;;4.63;1.10;;;;;;;;;;6276464;22;20456;-77
2023/04/12 02:23:26;;;;;;;2.88;1.10;;;;;;;;;;6277380;22;20004;-76
2023/04/12 02:25:51;;;;;;;3.55;0.90;;;;;;;;;;6278973;22;19996;-77
2023/04/12 02:28:16;;;;;;;3.40;1.10;;;;;;;;;;6274109;22;20447;-76
2023/04/12 02:30:42;;;;;;;5.47;1.10;;;;;;;;;;6275816;22;20422;-77
2023/04/12 02:33:10;;;;;;;4.28;1.05;;;;;;;;;;6275444;22;20004;-77
2023/04/12 02:35:36;;;;;;;3.20;1.15;;;;;;;;;;6276269;22;20010;-76
2023/04/12 02:38:06;;;;;;;3.50;0.68;;;;;;;;;;6278925;22;20004;-76
2023/04/12 02:40:32;;;;;;;3.30;1.00;;;;;;;;;;6277749;22;20014;-76
2023/04/12 02:42:57;;;;;;;4.07;1.00;;;;;;;;;;6278396;22;20346;-76
2023/04/12 02:45:23;;;;;;;3.80;1.02;;;;;;;;;;6275266;22;20011;-76
2023/04/12 02:47:48;;;;;;;3.22;0.95;;;;;;;;;;6276872;22;20015;-76
2023/04/12 02:50:13;;;;;;;1.88;0.80;;;;;;;;;;6279977;22;20008;-76
2023/04/12 02:52:39;;;;;;;5.38;0.95;;;;;;;;;;6278296;22;20414;-77
2023/04/12 02:55:05;;;;;;;3.65;1.10;;;;;;;;;;6273703;22;20004;-77
2023/04/12 02:57:30;;;;;;;3.15;0.80;;;;;;;;;;6279026;22;20003;-76
2023/04/12 02:59:56;;;;;;;3.00;0.93;;;;;;;;;;6276080;22;20011;-77
2023/04/12 03:02:22;;;;;;;2.22;0.70;;;;;;;;;;6278019;22;20078;-76
2023/04/12 03:04:49;;;;;;;4.32;0.90;;;;;;;;;;6278576;22;20027;-77
2023/04/12 03:07:18;;;;;;;4.32;1.10;;;;;;;;;;6274153;22;20024;-76
2023/04/12 03:09:45;;;;;;;3.28;0.90;;;;;;;;;;6275758;22;20046;-76
2023/04/12 03:12:11;;;;;;;4.93;1.00;;;;;;;;;;6276285;22;20059;-76
2023/04/12 03:14:36;;;;;;;2.30;0.80;;;;;;;;;;6278184;22;20015;-77
2023/04/12 03:17:01;;;;;;;2.35;0.90;;;;;;;;;;6273134;22;20007;-76
2023/04/12 03:19:28;;;;;;;5.00;0.90;;;;;;;;;;6279828;22;20004;-77
2023/04/12 03:21:53;;;;;;;2.78;1.00;;;;;;;;;;6272715;22;20038;-77
2023/04/12 03:24:19;;;;;;;3.22;0.80;;;;;;;;;;6277211;22;20003;-76
2023/04/12 03:26:44;;;;;;;2.83;0.70;;;;;;;;;;6282951;22;19999;-76
2023/04/12 03:29:10;;;;;;;2.42;1.02;;;;;;;;;;6279524;22;20008;-77
2023/04/12 03:31:35;;;;;;;1.88;0.68;;;;;;;;;;6278713;22;20072;-76
2023/04/12 03:34:01;;;;;;;1.83;0.80;;;;;;;;;;6281761;22;20006;-76
2023/04/12 03:36:28;;;;;;;2.72;0.93;;;;;;;;;;6278459;22;20046;-77
2023/04/12 03:38:53;;;;;;;1.65;0.65;;;;;;;;;;6280312;22;20003;-76
2023/04/12 03:41:22;;;;;;;1.65;0.80;;;;;;;;;;6282815;22;20079;-77
2023/04/12 03:43:48;;;;;;;3.10;0.82;;;;;;;;;;6284073;22;20079;-77
2023/04/12 03:46:14;;;;;;;2.95;0.90;;;;;;;;;;6284840;22;20299;-77
2023/04/12 03:48:40;;;;;;;2.15;0.90;;;;;;;;;;6281656;22;20012;-76
2023/04/12 03:51:06;;;;;;;2.35;0.77;;;;;;;;;;6281855;22;20010;-76
2023/04/12 03:53:32;;;;;;;2.35;0.70;;;;;;;;;;6281673;22;20448;-76
2023/04/12 03:55:58;;;;;;;1.65;0.70;;;;;;;;;;6284034;22;20059;-76
2023/04/12 03:58:23;;;;;;;1.73;0.80;;;;;;;;;;6279280;22;20031;-77
2023/04/12 04:00:49;;;;;;;3.20;1.10;;;;;;;;;;6281224;22;20090;-77
2023/04/12 04:03:15;;;;;;;2.45;0.95;;;;;;;;;;6281625;22;20018;-76
2023/04/12 04:05:40;;;;;;;1.92;0.80;;;;;;;;;;6281661;22;20006;-76
2023/04/12 04:08:07;;;;;;;2.63;0.70;;;;;;;;;;6279198;22;20004;-77
2023/04/12 04:10:32;;;;;;;2.05;0.80;;;;;;;;;;6280002;22;20049;-76
2023/04/12 04:12:58;;;;;;;1.92;0.80;;;;;;;;;;6278449;22;20003;-76
2023/04/12 04:15:26;;;;;;;2.03;0.77;;;;;;;;;;6282284;22;20461;-76
2023/04/12 04:17:52;;;;;;;1.65;0.80;;;;;;;;;;6281089;22;19999;-76
2023/04/12 04:20:20;;;;;;;2.13;0.80;;;;;;;;;;6275333;22;20009;-76
2023/04/12 04:22:52;;;;;;;3.33;0.80;;;;;;;;;;6274553;22;20008;-75
2023/04/12 04:25:18;;;;;;;3.08;0.80;;;;;;;;;;6279339;22;20003;-76
2023/04/12 04:27:44;;;;;;;1.77;0.75;;;;;;;;;;6278942;22;20179;-76
2023/04/12 04:30:11;;;;;;;0.85;0.52;;;;;;;;;;6276096;22;20452;-76
2023/04/12 04:32:37;;;;;;;0.95;0.55;;;;;;;;;;6279033;22;20004;-76
2023/04/12 04:35:03;;;;;;;1.88;0.70;;;;;;;;;;6277386;22;20008;-76
2023/04/12 04:37:30;;;;;;;1.98;0.73;;;;;;;;;;6277050;22;20330;-76
2023/04/12 04:39:55;;;;;;;0.80;0.52;;;;;;;;;;6276698;22;20090;-76
2023/04/12 04:42:21;;;;;;;2.92;0.80;;;;;;;;;;6275093;22;20042;-77
2023/04/12 04:44:49;;;;;;;1.90;0.90;;;;;;;;;;6276298;22;20023;-76
2023/04/12 04:47:15;;;;;;;2.08;0.95;;;;;;;;;;6276310;22;20418;-77
2023/04/12 04:49:42;;;;;;;1.98;0.77;;;;;;;;;;6277425;22;20008;-76
2023/04/12 04:52:07;;;;;;;1.83;0.73;;;;;;;;;;6275188;22;20000;-76
2023/04/12 04:54:33;;;;;;;2.15;0.90;;;;;;;;;;6277312;22;20505;-76
2023/04/12 04:56:58;;;;;;;2.63;0.82;;;;;;;;;;6277731;22;20035;-75
2023/04/12 04:59:23;;;;;;;3.28;1.08;;;;;;;;;;6247353;22;20015;-75
2023/04/12 05:01:50;;;;;;;5.20;1.00;;;;;;;;;;6273938;22;20082;-75
2023/04/12 05:04:16;;;;;;;3.60;0.93;;;;;;;;;;6275061;22;20011;-75
2023/04/12 05:06:41;;;;;;;2.05;0.70;;;;;;;;;;6274866;22;20068;-75
2023/04/12 05:09:06;;;;;;;2.20;0.90;;;;;;;;;;6274604;22;20004;-76
2023/04/12 05:11:32;;;;;;;1.98;0.70;;;;;;;;;;6273806;22;20004;-75
2023/04/12 05:13:57;;;;;;;2.70;0.85;;;;;;;;;;6276213;22;20079;-76
2023/04/12 05:16:22;;;;;;;2.20;0.80;;;;;;;;;;6276877;22;20042;-75
2023/04/12 05:18:48;;;;;;;2.13;0.80;;;;;;;;;;6274994;22;20027;-75
2023/04/12 05:21:13;;;;;;;1.23;0.70;;;;;;;;;;6273832;22;20042;-75
2023/04/12 05:23:45;;;;;;;1.95;0.80;;;;;;;;;;6271072;22;20042;-75
2023/04/12 05:26:11;;;;;;;2.08;0.88;;;;;;;;;;6272734;22;20054;-76
2023/04/12 05:28:36;;;;;;;2.45;1.00;;;;;;;;;;6275726;22;20004;-75
2023/04/12 05:31:01;;;;;;;3.25;1.00;;;;;;;;;;6275967;22;20457;-75
2023/04/12 05:33:27;;;;;;;2.88;0.88;;;;;;;;;;6274648;22;20000;-76
2023/04/12 05:35:52;;;;;;;2.40;0.90;;;;;;;;;;6273562;22;20090;-75
2023/04/12 05:38:17;;;;;;;1.65;0.90;;;;;;;;;;6272198;22;20008;-75
2023/04/12 05:40:43;;;;;;;2.17;0.80;;;;;;;;;;6272160;22;20035;-76
2023/04/12 05:43:11;;;;;;;1.88;0.90;;;;;;;;;;6274626;22;20004;-76
2023/04/12 05:45:38;;;;;;;2.35;1.08;;;;;;;;;;6271375;22;20000;-76
2023/04/12 05:48:04;;;;;;;3.17;0.95;;;;;;;;;;6271782;22;20007;-75
2023/04/12 05:50:29;;;;;;;2.97;0.90;;;;;;;;;;6269143;22;20003;-78
2023/04/12 05:52:54;;;;;;;2.10;0.90;;;;;;;;;;6275642;22;20015;-78
2023/04/12 05:55:20;;;;;;;2.25;0.90;;;;;;;;;;6266882;22;20031;-78
2023/04/12 05:57:46;;;;;;;2.15;0.98;;;;;;;;;;6274284;22;20008;-78
2023/04/12 06:00:15;;;;;;;2.55;0.98;;;;;;;;;;6273081;22;20384;-78
2023/04/12 06:02:41;;;;;;;2.63;1.00;;;;;;;;;;6270919;22;19999;-78
2023/04/12 06:05:08;;;;;;;1.90;1.10;;;;;;;;;;6271707;22;20030;-78
2023/04/12 06:07:33;;;;;;;3.22;0.98;;;;;;;;;;6271900;22;20003;-78
2023/04/12 06:09:58;;;;;;;3.28;1.50;;;;;;;;;;6272442;22;20000;-78
2023/04/12 06:12:24;;;;;;;2.97;1.00;;;;;;;;;;6273027;22;20043;-78
2023/04/12 06:14:49;;;;;;;2.25;1.00;;;;;;;;;;6272664;22;20053;-78
2023/04/12 06:17:14;;;;;;;2.65;1.20;;;;;;;;;;6265718;22;19999;-78
2023/04/12 06:19:40;;;;;;;2.78;0.90;;;;;;;;;;6270890;22;20007;-78
2023/04/12 06:22:05;;;;;;;2.47;0.90;;;;;;;;;;6272603;22;20071;-79
2023/04/12 06:24:31;;;;;;;2.05;1.00;;;;;;;;;;6274900;22;20008;-78
2023/04/12 06:26:56;;;;;;;3.72;1.25;;;;;;;;;;6271136;22;19996;-78
2023/04/12 06:29:21;;;;;;;1.52;0.95;;;;;;;;;;6273151;22;20004;-77
2023/04/12 06:31:47;;;;;;;3.35;1.20;;;;;;;;;;6269943;22;20038;-78
2023/04/12 06:34:12;;;;;;;1.25;0.85;;;;;;;;;;6271520;22;20015;-78
2023/04/12 06:36:40;;;;;;;1.80;0.90;;;;;;;;;;6267106;22;20004;-79
2023/04/12 06:39:06;;;;;;;1.38;0.80;;;;;;;;;;6276122;22;20004;-79
2023/04/12 06:41:31;;;;;;;2.10;0.90;;;;;;;;;;6272726;22;20405;-78
2023/04/12 06:43:57;;;;;;;2.42;1.17;;;;;;;;;;6271442;22;20004;-79
2023/04/12 06:46:26;;;;;;;1.85;0.88;;;;;;;;;;6273072;22;20003;-78
2023/04/12 06:48:52;;;;;;;3.00;1.10;;;;;;;;;;6268552;22;20346;-78
2023/04/12 06:51:17;;;;;;;1.60;0.93;;;;;;;;;;6270956;22;20079;-79
2023/04/12 06:53:42;;;;;;;1.90;0.93;;;;;;;;;;6268846;22;19999;-78
2023/04/12 06:56:08;;;;;;;2.85;1.10;;;;;;;;;;6273042;22;20058;-79
2023/04/12 06:58:33;;;;;;;2.08;0.88;;;;;;;;;;6274038;22;20011;-78
2023/04/12 07:01:09;;;;;;;2.20;1.10;;;;;;;;;;6271750;22;20004;-78
2023/04/12 07:03:35;;;;;;;1.52;1.10;;;;;;;;;;6273114;22;20015;-79
2023/04/12 07:06:01;;;;;;;1.33;0.80;;;;;;;;;;6274166;22;19995;-79
2023/04/12 07:08:31;;;;;;;2.58;1.00;;;;;;;;;;6274151;22;20011;-79
2023/04/12 07:10:57;;;;;;;2.47;0.90;;;;;;;;;;6274940;22;20003;-79
2023/04/12 07:13:22;;;;;;;3.33;1.02;;;;;;;;;;6273430;22;20049;-79
2023/04/12 07:15:49;;;;;;;2.28;1.00;;;;;;;;;;6274266;22;20015;-78
2023/04/12 07:18:15;;;;;;;1.55;0.98;;;;;;;;;;6272447;22;20015;-79
2023/04/12 07:20:40;;;;;;;3.10;1.10;;;;;;;;;;6272549;22;20007;-79
2023/04/12 07:23:05;;;;;;;3.67;1.20;;;;;;;;;;6272756;22;20008;-79
2023/04/12 07:25:30;;;;;;;2.88;1.10;;;;;;;;;;6274618;22;20007;-78
2023/04/12 07:27:56;;;;;;;3.50;1.10;;;;;;;;;;6274691;22;20073;-79
2023/04/12 07:30:22;;;;;;;3.05;1.17;;;;;;;;;;6275345;22;20003;-79
2023/04/12 07:32:47;;;;;;;3.92;1.20;;;;;;;;;;6273500;22;20012;-78
2023/04/12 07:35:13;;;;;;;2.22;1.10;;;;;;;;;;6273824;22;20370;-79
2023/04/12 07:37:38;;;;;;;5.15;1.20;;;;;;;;;;6274169;22;20004;-78
2023/04/12 07:40:04;;;;;;;3.58;1.10;;;;;;;;;;6273270;22;20011;-79
2023/04/12 07:42:29;;;;;;;4.05;1.13;;;;;;;;;;6271273;22;20004;-78
2023/04/12 07:44:55;;;;;;;3.30;1.30;;;;;;;;;;6271381;22;20007;-78
2023/04/12 07:47:20;;;;;;;3.83;1.30;;;;;;;;;;6274432;22;20082;-79
2023/04/12 07:49:45;;;;;;;4.43;1.20;;;;;;;;;;6272154;22;19999;-78
2023/04/12 07:52:11;;;;;;;2.80;1.33;;;;;;;;;;6272158;22;20034;-79
2023/04/12 07:54:36;;;;;;;3.63;1.27;;;;;;;;;;6271588;22;20024;-79
2023/04/12 07:57:02;;;;;;;3.70;1.17;;;;;;;;;;6273395;22;19999;-79
2023/04/12 07:59:29;;;;;;;3.58;1.20;;;;;;;;;;6273797;22;20076;-79
2023/04/12 08:01:54;;;;;;;4.40;1.20;;;;;;;;;;6273042;22;20004;-78
2023/04/12 08:04:20;;;;;;;4.20;1.25;;;;;;;;;;6271596;22;20445;-79
2023/04/12 08:06:45;;;;;;;4.38;1.25;;;;;;;;;;6273023;22;20004;-78
2023/04/12 08:09:10;;;;;;;6.30;1.30;;;;;;;;;;6273197;22;20011;-78
2023/04/12 08:11:36;;;;;;;5.10;1.42;;;;;;;;;;6275517;22;20031;-79
2023/04/12 08:14:01;;;;;;;3.75;1.20;;;;;;;;;;6272517;22;20002;-79
2023/04/12 08:16:27;;;;;;;6.07;1.60;;;;;;;;;;6274890;22;20303;-79
2023/04/12 08:18:52;;;;;;;3.53;1.25;;;;;;;;;;6275346;22;20000;-78
2023/04/12 08:21:17;;;;;;;6.05;1.30;;;;;;;;;;6276828;22;20027;-78
2023/04/12 08:23:43;;;;;;;4.32;1.30;;;;;;;;;;6274813;22;20004;-77
2023/04/12 08:26:08;;;;;;;4.47;1.38;;;;;;;;;;6274852;22;20010;-79
2023/04/12 08:28:34;;;;;;;3.35;1.60;;;;;;;;;;6274579;22;20015;-79
2023/04/12 08:30:59;;;;;;;7.75;1.63;;;;;;;;;;6274458;22;20008;-79
2023/04/12 08:33:25;;;;;;;8.15;1.48;;;;;;;;;;6274160;22;20007;-78
2023/04/12 08:35:51;;;;;;;3.53;1.48;;;;;;;;;;6274649;22;20539;-79
2023/04/12 08:38:17;;;;;;;3.80;1.45;;;;;;;;;;6274464;22;20303;-79
2023/04/12 08:40:43;;;;;;;3.85;1.45;;;;;;;;;;6275723;22;20004;-79
2023/04/12 08:43:10;;;;;;;4.43;1.42;;;;;;;;;;6272964;22;20114;-79
2023/04/12 08:45:36;;;;;;;7.15;1.75;;;;;;;;;;6273331;22;20086;-79
2023/04/12 08:48:04;;;;;;;6.57;1.52;;;;;;;;;;6275018;22;20461;-79
2023/04/12 08:50:30;;;;;;;7.45;2.13;;;;;;;;;;6276040;22;20003;-79
2023/04/12 08:52:57;;;;;;;9.23;2.47;;;;;;;;;;6275592;22;20441;-79
2023/04/12 08:55:23;;;;;;;5.47;1.60;;;;;;;;;;6274913;22;20003;-79
2023/04/12 08:57:52;;;;;;;6.88;1.80;;;;;;;;;;6274915;22;20034;-79
2023/04/12 09:00:19;;;;;;;5.80;1.70;;;;;;;;;;6273908;22;20003;-78
2023/04/12 09:02:45;;;;;;;8.80;1.70;;;;;;;;;;6274903;22;20007;-78
2023/04/12 09:05:13;;;;;;;5.25;1.65;;;;;;;;;;6275640;22;20053;-78
2023/04/12 09:07:39;;;;;;;5.63;1.90;;;;;;;;;;6274044;22;20069;-79
2023/04/12 09:10:05;;;;;;;9.18;2.05;;;;;;;;;;6275152;22;20016;-79
2023/04/12 09:12:30;;;;;;;7.78;1.88;;;;;;;;;;6269442;22;20010;-77
2023/04/12 09:15:16;;;;;;;9.20;1.85;;;;;;;;;;6269540;22;20086;-79
2023/04/12 09:17:42;;;;;;;9.55;2.33;;;;;;;;;;6275505;22;20011;-79
2023/04/12 09:20:22;;;;;;;6.88;1.80;;;;;;;;;;6247178;22;20349;-79
2023/04/12 09:22:48;;;;;;;10.73;1.77;;;;;;;;;;6273203;22;20006;-79
2023/04/12 09:25:15;;;;;;;5.63;2.00;;;;;;;;;;6271974;22;20452;-79
2023/04/12 09:27:51;;;;;;;9.07;2.08;;;;;;;;;;6269539;22;20011;-79
2023/04/12 09:30:18;;;;;;;9.20;2.47;;;;;;;;;;6271561;22;20460;-79
2023/04/12 09:32:44;;;;;;;4.15;1.80;;;;;;;;;;6272650;22;20035;-79
2023/04/12 09:35:10;;;;;;;8.20;2.13;;;;;;;;;;6273771;22;20321;-79
2023/04/12 09:37:35;;;;;;;9.70;2.60;;;;;;;;;;6247573;22;20349;-80
2023/04/12 09:40:06;;;;;;;8.70;2.85;;;;;;;;;;6275483;22;20006;-78
2023/04/12 09:42:36;;;;;;;7.28;1.90;;;;;;;;;;6271988;22;20007;-79
2023/04/12 09:45:23;;;;;;;5.65;2.10;;;;;;;;;;6272806;22;19999;-79
2023/04/12 09:47:49;;;;;;;8.70;1.90;;;;;;;;;;6271995;22;20016;-79
2023/04/12 09:50:24;;;;;;;10.38;2.50;;;;;;;;;;6274273;22;20429;-79
2023/04/12 09:52:51;;;;;;;9.90;2.60;;;;;;;;;;6269469;22;20138;-78
2023/04/12 09:55:17;;;;;;;9.02;2.50;;;;;;;;;;6271914;22;20000;-80
2023/04/12 09:57:44;;;;;;;6.93;2.38;;;;;;;;;;6273067;22;20027;-80
2023/04/12 10:00:15;;;;;;;9.30;2.15;;;;;;;;;;6272193;22;20003;-79
2023/04/12 10:02:42;;;;;;;10.40;2.35;;;;;;;;;;6272494;22;20053;-79
2023/04/12 10:05:13;;;;;;;8.57;2.30;;;;;;;;;;6271557;22;20014;-79
2023/04/12 10:07:42;;;;;;;8.02;2.22;;;;;;;;;;6271072;22;20011;-78
2023/04/12 10:10:11;;;;;;;7.82;2.45;;;;;;;;;;6274331;22;20022;-79
2023/04/12 10:12:37;;;;;;;10.85;2.58;;;;;;;;;;6275066;22;20027;-79
2023/04/12 10:15:11;;;;;;;9.40;2.42;;;;;;;;;;6273322;22;20057;-79
2023/04/12 10:17:43;;;;;;;8.90;1.95;;;;;;;;;;6274384;22;19999;-78
2023/04/12 10:20:10;;;;;;;11.27;2.38;;;;;;;;;;6274403;22;20080;-78
2023/04/12 10:22:41;;;;;;;7.75;2.28;;;;;;;;;;6274496;22;20003;-79
2023/04/12 10:25:14;;;;;;;7.55;2.33;;;;;;;;;;6274843;22;20015;-76
2023/04/12 10:27:42;;;;;;;8.25;2.88;;;;;;;;;;6274513;22;20095;-77
2023/04/12 10:30:22;;;;;;;10.25;2.67;;;;;;;;;;6272250;22;20007;-76
2023/04/12 10:33:08;;;;;;;6.97;2.35;;;;;;;;;;6276189;22;20008;-76
2023/04/12 10:35:56;;;;;;;8.20;2.13;;;;;;;;;;6275039;22;20003;-76
2023/04/12 10:38:25;;;;;;;8.93;2.65;;;;;;;;;;6274749;22;20003;-76
2023/04/12 10:41:09;;;;;;;8.88;2.30;;;;;;;;;;6272895;22;20366;-76
2023/04/12 10:43:34;;;;;;;9.93;2.63;;;;;;;;;;6273134;22;20090;-76
2023/04/12 10:46:03;;;;;;;7.47;2.53;;;;;;;;;;6276837;22;20034;-76
2023/04/12 10:48:36;;;;;;;5.63;2.00;;;;;;;;;;6275162;22;20007;-76
2023/04/12 10:51:15;;;;;;;10.25;2.17;;;;;;;;;;6273916;22;20050;-76
2023/04/12 10:53:40;;;;;;;9.10;2.10;;;;;;;;;;6275824;22;20007;-75
2023/04/12 10:56:29;;;;;;;11.98;2.22;;;;;;;;;;6270584;22;20073;-77
2023/04/12 10:58:55;;;;;;;7.65;2.40;;;;;;;;;;6253538;22;20010;-75
2023/04/12 11:01:20;;;;;;;9.80;2.22;;;;;;;;;;6272923;22;20066;-76
2023/04/12 11:04:05;;;;;;;11.23;2.40;;;;;;;;;;6274279;22;20027;-76
2023/04/12 11:06:52;;;;;;;8.13;1.88;;;;;;;;;;6273525;22;20308;-77
2023/04/12 11:09:47;;;;;;;7.10;2.10;;;;;;;;;;6275194;22;20042;-76
2023/04/12 11:12:14;;;;;;;6.00;1.38;;;;;;;;;;6275035;22;20010;-76
2023/04/12 11:14:48;;;;;;;9.90;1.67;;;;;;;;;;6272795;22;20429;-76
2023/04/12 11:17:14;;;;;;;8.85;1.63;;;;;;;;;;6273804;22;20011;-75
2023/04/12 11:19:41;;;;;;;6.90;1.42;;;;;;;;;;6274219;22;20012;-75
2023/04/12 11:22:09;;;;;;;10.52;1.48;;;;;;;;;;6272923;22;20623;-76
2023/04/12 11:24:40;;;;;;;15.52;1.48;;;;;;;;;;6274018;22;20056;-76
2023/04/12 11:27:05;;;;;;;9.25;1.50;;;;;;;;;;6271857;22;20333;-76
2023/04/12 11:29:31;;;;;;;7.43;1.98;;;;;;;;;;6273211;22;19999;-76
2023/04/12 11:31:57;;;;;;;5.50;1.38;;;;;;;;;;6271369;22;20330;-76
2023/04/12 11:34:23;;;;;;;9.65;1.45;;;;;;;;;;6272515;22;20030;-75
2023/04/12 11:36:52;;;;;;;7.25;1.20;;;;;;;;;;6271970;22;20004;-76
2023/04/12 11:39:19;;;;;;;6.55;1.20;;;;;;;;;;6270538;22;20749;-75
2023/04/12 11:41:48;;;;;;;7.97;1.35;;;;;;;;;;6273760;22;20323;-76
2023/04/12 11:44:18;;;;;;;7.00;1.38;;;;;;;;;;6272728;22;20035;-76
2023/04/12 11:46:44;;;;;;;11.57;1.70;;;;;;;;;;6272363;22;20387;-76
2023/04/12 11:49:09;;;;;;;8.35;1.50;;;;;;;;;;6273784;22;20004;-76
2023/04/12 11:51:35;;;;;;;6.45;1.20;;;;;;;;;;6275617;22;20042;-76
2023/04/12 11:54:00;;;;;;;8.07;1.30;;;;;;;;;;6272895;22;20418;-76
2023/04/12 11:56:28;;;;;;;6.30;1.40;;;;;;;;;;6274663;22;20035;-75
2023/04/12 11:58:53;;;;;;;6.03;1.38;;;;;;;;;;6275649;22;20315;-75
2023/04/12 12:01:20;;;;;;;5.63;1.27;;;;;;;;;;6274294;22;20053;-76
2023/04/12 12:03:47;;;;;;;12.80;1.90;;;;;;;;;;6245902;22;20008;-77
2023/04/12 12:06:13;;;;;;;9.18;1.60;;;;;;;;;;6276248;22;20004;-76
2023/04/12 12:08:39;;;;;;;7.45;1.38;;;;;;;;;;6276024;22;20034;-75
2023/04/12 12:11:04;;;;;;;8.63;1.60;;;;;;;;;;6270264;22;20007;-76
2023/04/12 12:13:46;;;;;;;7.72;1.20;;;;;;;;;;6274346;22;20004;-76
2023/04/12 12:16:12;;;;;;;9.13;1.35;;;;;;;;;;6277807;22;20058;-76
2023/04/12 12:18:41;;;;;;;7.05;1.90;;;;;;;;;;6276928;22;20006;-76
2023/04/12 12:21:12;;;;;;;6.32;1.40;;;;;;;;;;6276764;22;19999;-76
2023/04/12 12:23:40;;;;;;;9.52;1.55;;;;;;;;;;6277841;22;20014;-75
2023/04/12 12:26:06;;;;;;;7.25;1.67;;;;;;;;;;6276922;22;20111;-76
2023/04/12 12:28:38;;;;;;;4.70;1.50;;;;;;;;;;6276047;22;20042;-76
2023/04/12 12:31:11;;;;;;;9.18;2.58;;;;;;;;;;6277633;22;20106;-75
2023/04/12 12:33:37;;;;;;;5.47;1.45;;;;;;;;;;6275560;22;20018;-75
2023/04/12 12:36:02;;;;;;;7.22;2.10;;;;;;;;;;6275658;22;20075;-75
2023/04/12 12:38:38;;;;;;;8.02;1.58;;;;;;;;;;6275821;22;20429;-75
2023/04/12 12:41:33;;;;;;;7.00;1.83;;;;;;;;;;6277251;22;20033;-75
2023/04/12 12:43:59;;;;;;;4.25;1.10;;;;;;;;;;6256706;22;20065;-76
2023/04/12 12:46:25;;;;;;;6.05;1.70;;;;;;;;;;6276315;22;20830;-75
2023/04/12 12:48:50;;;;;;;3.33;0.95;;;;;;;;;;6278043;22;20315;-75
2023/04/12 12:51:19;;;;;;;3.78;0.98;;;;;;;;;;6277499;22;20007;-75
2023/04/12 12:53:45;;;;;;;4.13;1.10;;;;;;;;;;6275024;22;20014;-75
2023/04/12 12:56:12;;;;;;;4.82;1.33;;;;;;;;;;6275056;22;20015;-76
2023/04/12 12:58:38;;;;;;;7.90;1.40;;;;;;;;;;6275068;22;20060;-74
2023/04/12 13:01:03;;;;;;;4.88;1.10;;;;;;;;;;6275317;22;20446;-75
2023/04/12 13:03:30;;;;;;;6.57;1.10;;;;;;;;;;6275797;22;20337;-75
2023/04/12 13:05:58;;;;;;;11.40;1.90;;;;;;;;;;6277696;22;20007;-75
2023/04/12 13:08:24;;;;;;;6.43;1.13;;;;;;;;;;6275200;22;20086;-75
2023/04/12 13:10:50;;;;;;;6.13;1.30;;;;;;;;;;6275861;22;20032;-75
2023/04/12 13:13:16;;;;;;;7.88;1.23;;;;;;;;;;6276154;22;20035;-76
2023/04/12 13:15:42;;;;;;;7.72;1.10;;;;;;;;;;6278260;22;20334;-76
2023/04/12 13:18:08;;;;;;;6.40;1.00;;;;;;;;;;6277304;22;20003;-75
2023/04/12 13:20:33;;;;;;;6.63;1.00;;;;;;;;;;6275349;22;20015;-75
2023/04/12 13:22:59;;;;;;;5.43;0.90;;;;;;;;;;6275463;22;20014;-75
2023/04/12 13:25:25;;;;;;;3.83;1.05;;;;;;;;;;6276500;22;20003;-76
2023/04/12 13:27:51;;;;;;;2.75;0.75;;;;;;;;;;6276869;22;20075;-75
2023/04/12 13:30:19;;;;;;;5.32;1.13;;;;;;;;;;6276190;22;20495;-76
2023/04/12 13:32:44;;;;;;;4.20;1.25;;;;;;;;;;6274907;22;20011;-75
2023/04/12 13:35:10;;;;;;;5.57;0.90;;;;;;;;;;6275595;22;20334;-75
2023/04/12 13:37:36;;;;;;;4.47;1.27;;;;;;;;;;6273150;22;20061;-75
2023/04/12 13:40:02;;;;;;;2.65;1.00;;;;;;;;;;6276157;22;20104;-76
2023/04/12 13:42:27;;;;;;;4.63;1.20;;;;;;;;;;6265194;22;20013;-75
2023/04/12 13:44:53;;;;;;;2.80;1.05;;;;;;;;;;6271976;22;20082;-75
2023/04/12 13:47:18;;;;;;;4.88;1.35;;;;;;;;;;6276497;22;20050;-75
2023/04/12 13:49:44;;;;;;;3.85;1.10;;;;;;;;;;6275700;22;20004;-75
2023/04/12 13:52:09;;;;;;;5.07;1.20;;;;;;;;;;6273577;22;20464;-74
2023/04/12 13:54:35;;;;;;;2.42;1.05;;;;;;;;;;6276952;22;20098;-75
2023/04/12 13:57:01;;;;;;;3.20;1.00;;;;;;;;;;6273909;22;20004;-75
2023/04/12 13:59:26;;;;;;;3.38;1.13;;;;;;;;;;6273169;22;20094;-75
2023/04/12 14:01:52;;;;;;;6.43;1.25;;;;;;;;;;6273662;22;20011;-76
2023/04/12 14:04:18;;;;;;;4.55;1.20;;;;;;;;;;6270623;22;20007;-76
2023/04/12 14:06:44;;;;;;;5.85;1.10;;;;;;;;;;6274303;22;19996;-75
2023/04/12 14:09:30;;;;;;;2.63;1.20;;;;;;;;;;6273315;22;20333;-75
2023/04/12 14:12:00;;;;;;;4.55;1.30;;;;;;;;;;6274542;22;20003;-75
2023/04/12 14:14:26;;;;;;;4.18;1.30;;;;;;;;;;6275807;22;20008;-75
2023/04/12 14:16:55;;;;;;;3.55;1.20;;;;;;;;;;6272511;22;20037;-75
2023/04/12 14:19:21;;;;;;;3.40;1.17;;;;;;;;;;6277395;22;20007;-75
2023/04/12 14:21:47;;;;;;;3.30;1.10;;;;;;;;;;6275818;22;20004;-75
2023/04/12 14:24:14;;;;;;;3.78;1.00;;;;;;;;;;6275077;22;20085;-76
2023/04/12 14:26:40;;;;;;;4.22;1.10;;;;;;;;;;6273273;22;19999;-74
2023/04/12 14:29:06;;;;;;;2.88;1.10;;;;;;;;;;6275505;22;20303;-75
2023/04/12 14:31:34;;;;;;;3.22;1.10;;;;;;;;;;6272534;22;20014;-75
2023/04/12 14:34:00;;;;;;;3.22;1.00;;;;;;;;;;6273594;22;20345;-76
2023/04/12 14:36:26;;;;;;;2.75;1.00;;;;;;;;;;6272260;22;20087;-75
2023/04/12 14:38:52;;;;;;;5.32;1.42;;;;;;;;;;6274024;22;20004;-75
2023/04/12 14:41:17;;;;;;;5.22;1.17;;;;;;;;;;6272127;22;20007;-77
2023/04/12 14:43:43;;;;;;;3.33;1.10;;;;;;;;;;6272658;22;20061;-75
2023/04/12 14:46:09;;;;;;;2.58;0.85;;;;;;;;;;6271907;22;20013;-75